sensor_id;sensor_type;location;lat;lon;timestamp;P1;durP1;ratioP1;P2;durP2;ratioP2
53652;SDS011;39553;52.954;5.932;2023-08-31T00:00:49;2.50;;;0.80;;
53652;SDS011;39553;52.954;5.932;2023-08-31T00:03:18;1.33;;;0.85;;
53652;SDS011;39553;52.954;5.932;2023-08-31T00:05:44;3.35;;;0.70;;
53652;SDS011;39553;52.954;5.932;2023-08-31T00:08:11;0.73;;;0.50;;
53652;SDS011;39553;52.954;5.932;2023-08-31T00:10:37;0.65;;;0.55;;
53652;SDS011;39553;52.954;5.932;2023-08-31T00:13:05;2.05;;;0.65;;
53652;SDS011;39553;52.954;5.932;2023-08-31T00:15:34;1.05;;;0.70;;
53652;SDS011;39553;52.954;5.932;2023-08-31T00:18:02;1.80;;;0.70;;
53652;SDS011;39553;52.954;5.932;2023-08-31T00:20:31;1.45;;;0.70;;
53652;SDS011;39553;52.954;5.932;2023-08-31T00:22:58;0.63;;;0.60;;
53652;SDS011;39553;52.954;5.932;2023-08-31T00:25:25;1.00;;;0.80;;
53652;SDS011;39553;52.954;5.932;2023-08-31T00:27:51;2.25;;;0.80;;
53652;SDS011;39553;52.954;5.932;2023-08-31T00:30:17;0.60;;;0.50;;
53652;SDS011;39553;52.954;5.932;2023-08-31T00:32:43;1.55;;;0.82;;
53652;SDS011;39553;52.954;5.932;2023-08-31T00:35:12;2.65;;;0.70;;
53652;SDS011;39553;52.954;5.932;2023-08-31T00:37:38;1.10;;;0.65;;
53652;SDS011;39553;52.954;5.932;2023-08-31T00:40:04;1.88;;;0.80;;
53652;SDS011;39553;52.954;5.932;2023-08-31T00:42:32;1.27;;;0.70;;
53652;SDS011;39553;52.954;5.932;2023-08-31T00:44:58;0.73;;;0.60;;
53652;SDS011;39553;52.954;5.932;2023-08-31T00:47:24;1.77;;;0.52;;
53652;SDS011;39553;52.954;5.932;2023-08-31T00:49:50;2.47;;;0.70;;
53652;SDS011;39553;52.954;5.932;2023-08-31T00:52:17;1.75;;;0.75;;
53652;SDS011;39553;52.954;5.932;2023-08-31T00:54:44;1.80;;;0.80;;
53652;SDS011;39553;52.954;5.932;2023-08-31T00:57:10;1.50;;;0.85;;
53652;SDS011;39553;52.954;5.932;2023-08-31T00:59:36;2.83;;;0.90;;
53652;SDS011;39553;52.954;5.932;2023-08-31T01:04:55;1.90;;;0.70;;
53652;SDS011;39553;52.954;5.932;2023-08-31T01:12:52;0.90;;;0.57;;
53652;SDS011;39553;52.954;5.932;2023-08-31T01:15:19;1.40;;;0.90;;
53652;SDS011;39553;52.954;5.932;2023-08-31T01:17:47;1.00;;;0.70;;
53652;SDS011;39553;52.954;5.932;2023-08-31T01:20:15;0.88;;;0.63;;
53652;SDS011;39553;52.954;5.932;2023-08-31T01:22:48;5.18;;;0.80;;
53652;SDS011;39553;52.954;5.932;2023-08-31T01:25:17;1.90;;;1.02;;
53652;SDS011;39553;52.954;5.932;2023-08-31T01:27:44;1.55;;;0.75;;
53652;SDS011;39553;52.954;5.932;2023-08-31T01:30:10;1.25;;;1.00;;
53652;SDS011;39553;52.954;5.932;2023-08-31T01:32:36;3.45;;;1.27;;
53652;SDS011;39553;52.954;5.932;2023-08-31T01:35:02;1.48;;;0.80;;
53652;SDS011;39553;52.954;5.932;2023-08-31T01:37:39;1.88;;;0.90;;
53652;SDS011;39553;52.954;5.932;2023-08-31T01:40:14;1.40;;;0.90;;
53652;SDS011;39553;52.954;5.932;2023-08-31T01:42:43;1.58;;;0.88;;
53652;SDS011;39553;52.954;5.932;2023-08-31T01:45:10;3.45;;;0.80;;
53652;SDS011;39553;52.954;5.932;2023-08-31T01:47:37;1.45;;;0.70;;
53652;SDS011;39553;52.954;5.932;2023-08-31T01:50:03;1.38;;;0.80;;
53652;SDS011;39553;52.954;5.932;2023-08-31T01:52:29;3.15;;;1.00;;
53652;SDS011;39553;52.954;5.932;2023-08-31T01:54:55;2.13;;;0.77;;
53652;SDS011;39553;52.954;5.932;2023-08-31T01:57:22;2.80;;;0.70;;
53652;SDS011;39553;52.954;5.932;2023-08-31T01:59:48;0.98;;;0.70;;
53652;SDS011;39553;52.954;5.932;2023-08-31T02:02:14;1.20;;;0.75;;
53652;SDS011;39553;52.954;5.932;2023-08-31T02:04:40;2.28;;;1.23;;
53652;SDS011;39553;52.954;5.932;2023-08-31T02:07:06;0.95;;;0.70;;
53652;SDS011;39553;52.954;5.932;2023-08-31T02:09:32;1.08;;;0.70;;
53652;SDS011;39553;52.954;5.932;2023-08-31T02:11:58;3.72;;;1.00;;
53652;SDS011;39553;52.954;5.932;2023-08-31T02:14:24;1.52;;;0.65;;
53652;SDS011;39553;52.954;5.932;2023-08-31T02:16:50;0.90;;;0.63;;
53652;SDS011;39553;52.954;5.932;2023-08-31T02:19:16;0.65;;;0.50;;
53652;SDS011;39553;52.954;5.932;2023-08-31T02:21:42;1.35;;;0.70;;
53652;SDS011;39553;52.954;5.932;2023-08-31T02:24:08;1.23;;;0.82;;
53652;SDS011;39553;52.954;5.932;2023-08-31T02:26:35;0.88;;;0.50;;
53652;SDS011;39553;52.954;5.932;2023-08-31T02:29:02;0.93;;;0.60;;
53652;SDS011;39553;52.954;5.932;2023-08-31T02:31:28;2.65;;;0.80;;
53652;SDS011;39553;52.954;5.932;2023-08-31T02:33:54;2.35;;;0.60;;
53652;SDS011;39553;52.954;5.932;2023-08-31T02:36:21;1.63;;;0.90;;
53652;SDS011;39553;52.954;5.932;2023-08-31T02:38:47;2.53;;;0.70;;
53652;SDS011;39553;52.954;5.932;2023-08-31T02:41:14;3.65;;;1.30;;
53652;SDS011;39553;52.954;5.932;2023-08-31T02:43:41;2.10;;;0.90;;
53652;SDS011;39553;52.954;5.932;2023-08-31T02:46:08;1.92;;;1.02;;
53652;SDS011;39553;52.954;5.932;2023-08-31T02:48:34;2.95;;;1.02;;
53652;SDS011;39553;52.954;5.932;2023-08-31T02:51:00;5.20;;;1.30;;
53652;SDS011;39553;52.954;5.932;2023-08-31T02:53:27;4.72;;;1.25;;
53652;SDS011;39553;52.954;5.932;2023-08-31T02:55:53;2.05;;;0.70;;
53652;SDS011;39553;52.954;5.932;2023-08-31T02:58:20;6.68;;;1.27;;
53652;SDS011;39553;52.954;5.932;2023-08-31T03:00:46;4.13;;;1.13;;
53652;SDS011;39553;52.954;5.932;2023-08-31T03:03:16;7.43;;;1.50;;
53652;SDS011;39553;52.954;5.932;2023-08-31T03:05:43;2.75;;;1.48;;
53652;SDS011;39553;52.954;5.932;2023-08-31T03:08:09;6.07;;;1.10;;
53652;SDS011;39553;52.954;5.932;2023-08-31T03:10:36;5.45;;;1.80;;
53652;SDS011;39553;52.954;5.932;2023-08-31T03:13:02;3.13;;;1.20;;
53652;SDS011;39553;52.954;5.932;2023-08-31T03:15:28;1.35;;;0.75;;
53652;SDS011;39553;52.954;5.932;2023-08-31T03:17:54;3.25;;;1.10;;
53652;SDS011;39553;52.954;5.932;2023-08-31T03:20:21;1.92;;;1.23;;
53652;SDS011;39553;52.954;5.932;2023-08-31T03:22:47;2.97;;;1.10;;
53652;SDS011;39553;52.954;5.932;2023-08-31T03:25:13;2.70;;;1.30;;
53652;SDS011;39553;52.954;5.932;2023-08-31T03:27:39;2.40;;;1.00;;
53652;SDS011;39553;52.954;5.932;2023-08-31T03:30:05;0.95;;;0.77;;
53652;SDS011;39553;52.954;5.932;2023-08-31T03:32:31;3.05;;;0.98;;
53652;SDS011;39553;52.954;5.932;2023-08-31T03:34:57;3.85;;;1.13;;
53652;SDS011;39553;52.954;5.932;2023-08-31T03:37:23;3.08;;;1.33;;
53652;SDS011;39553;52.954;5.932;2023-08-31T03:39:49;5.75;;;1.88;;
53652;SDS011;39553;52.954;5.932;2023-08-31T03:42:15;3.25;;;1.17;;
53652;SDS011;39553;52.954;5.932;2023-08-31T03:44:42;1.77;;;1.00;;
53652;SDS011;39553;52.954;5.932;2023-08-31T03:47:08;1.58;;;0.90;;
53652;SDS011;39553;52.954;5.932;2023-08-31T03:49:34;1.40;;;0.73;;
53652;SDS011;39553;52.954;5.932;2023-08-31T03:52:00;4.47;;;1.17;;
53652;SDS011;39553;52.954;5.932;2023-08-31T03:54:26;3.10;;;1.20;;
53652;SDS011;39553;52.954;5.932;2023-08-31T03:56:52;5.22;;;1.25;;
53652;SDS011;39553;52.954;5.932;2023-08-31T03:59:18;2.00;;;1.20;;
53652;SDS011;39553;52.954;5.932;2023-08-31T04:01:44;2.97;;;1.00;;
53652;SDS011;39553;52.954;5.932;2023-08-31T04:04:10;3.50;;;1.10;;
53652;SDS011;39553;52.954;5.932;2023-08-31T04:06:36;1.23;;;0.80;;
53652;SDS011;39553;52.954;5.932;2023-08-31T04:09:02;1.67;;;0.85;;
53652;SDS011;39553;52.954;5.932;2023-08-31T04:11:29;1.35;;;0.70;;
53652;SDS011;39553;52.954;5.932;2023-08-31T04:13:55;0.90;;;0.60;;
53652;SDS011;39553;52.954;5.932;2023-08-31T04:16:21;1.05;;;0.90;;
53652;SDS011;39553;52.954;5.932;2023-08-31T04:18:47;1.27;;;0.70;;
53652;SDS011;39553;52.954;5.932;2023-08-31T04:21:16;0.88;;;0.55;;
53652;SDS011;39553;52.954;5.932;2023-08-31T04:23:43;1.70;;;0.90;;
53652;SDS011;39553;52.954;5.932;2023-08-31T04:26:10;1.05;;;0.90;;
53652;SDS011;39553;52.954;5.932;2023-08-31T04:28:38;1.20;;;0.80;;
53652;SDS011;39553;52.954;5.932;2023-08-31T04:31:05;1.10;;;0.75;;
53652;SDS011;39553;52.954;5.932;2023-08-31T04:33:33;0.95;;;0.60;;
53652;SDS011;39553;52.954;5.932;2023-08-31T04:35:59;3.38;;;1.10;;
53652;SDS011;39553;52.954;5.932;2023-08-31T04:38:25;1.45;;;0.60;;
53652;SDS011;39553;52.954;5.932;2023-08-31T04:40:51;4.63;;;0.90;;
53652;SDS011;39553;52.954;5.932;2023-08-31T04:43:17;2.05;;;1.10;;
53652;SDS011;39553;52.954;5.932;2023-08-31T04:45:43;1.67;;;0.77;;
53652;SDS011;39553;52.954;5.932;2023-08-31T04:48:10;1.40;;;0.90;;
53652;SDS011;39553;52.954;5.932;2023-08-31T04:50:36;0.82;;;0.57;;
53652;SDS011;39553;52.954;5.932;2023-08-31T04:53:02;1.08;;;0.70;;
53652;SDS011;39553;52.954;5.932;2023-08-31T04:55:29;3.35;;;1.00;;
53652;SDS011;39553;52.954;5.932;2023-08-31T04:57:55;0.90;;;0.70;;
53652;SDS011;39553;52.954;5.932;2023-08-31T05:00:22;1.33;;;0.80;;
53652;SDS011;39553;52.954;5.932;2023-08-31T05:02:48;2.25;;;0.82;;
53652;SDS011;39553;52.954;5.932;2023-08-31T05:05:15;1.90;;;0.80;;
53652;SDS011;39553;52.954;5.932;2023-08-31T05:07:43;2.25;;;0.88;;
53652;SDS011;39553;52.954;5.932;2023-08-31T05:10:09;0.90;;;0.70;;
53652;SDS011;39553;52.954;5.932;2023-08-31T05:12:35;2.83;;;0.90;;
53652;SDS011;39553;52.954;5.932;2023-08-31T05:15:02;1.23;;;0.60;;
53652;SDS011;39553;52.954;5.932;2023-08-31T05:17:28;0.90;;;0.70;;
53652;SDS011;39553;52.954;5.932;2023-08-31T05:19:55;2.67;;;0.98;;
53652;SDS011;39553;52.954;5.932;2023-08-31T05:22:21;1.48;;;0.77;;
53652;SDS011;39553;52.954;5.932;2023-08-31T05:24:47;1.10;;;0.80;;
53652;SDS011;39553;52.954;5.932;2023-08-31T05:27:14;0.73;;;0.50;;
53652;SDS011;39553;52.954;5.932;2023-08-31T05:29:40;0.45;;;0.45;;
53652;SDS011;39553;52.954;5.932;2023-08-31T05:32:06;0.35;;;0.35;;
53652;SDS011;39553;52.954;5.932;2023-08-31T05:34:32;0.55;;;0.50;;
53652;SDS011;39553;52.954;5.932;2023-08-31T05:37:03;0.65;;;0.45;;
53652;SDS011;39553;52.954;5.932;2023-08-31T05:39:30;0.73;;;0.50;;
53652;SDS011;39553;52.954;5.932;2023-08-31T05:41:56;0.95;;;0.70;;
53652;SDS011;39553;52.954;5.932;2023-08-31T05:44:22;1.23;;;0.60;;
53652;SDS011;39553;52.954;5.932;2023-08-31T05:46:48;1.13;;;0.80;;
53652;SDS011;39553;52.954;5.932;2023-08-31T05:49:14;1.42;;;0.70;;
53652;SDS011;39553;52.954;5.932;2023-08-31T05:51:40;2.97;;;1.10;;
53652;SDS011;39553;52.954;5.932;2023-08-31T05:54:06;1.50;;;0.90;;
53652;SDS011;39553;52.954;5.932;2023-08-31T05:59:04;1.67;;;0.90;;
53652;SDS011;39553;52.954;5.932;2023-08-31T06:01:31;1.77;;;0.75;;
53652;SDS011;39553;52.954;5.932;2023-08-31T06:03:57;1.48;;;1.00;;
53652;SDS011;39553;52.954;5.932;2023-08-31T06:06:23;1.88;;;0.90;;
53652;SDS011;39553;52.954;5.932;2023-08-31T06:08:49;1.27;;;0.80;;
53652;SDS011;39553;52.954;5.932;2023-08-31T06:11:15;2.38;;;0.73;;
53652;SDS011;39553;52.954;5.932;2023-08-31T06:13:41;2.03;;;0.90;;
53652;SDS011;39553;52.954;5.932;2023-08-31T06:16:08;0.95;;;0.70;;
53652;SDS011;39553;52.954;5.932;2023-08-31T06:18:34;0.90;;;0.63;;
53652;SDS011;39553;52.954;5.932;2023-08-31T06:21:00;1.02;;;0.80;;
53652;SDS011;39553;52.954;5.932;2023-08-31T06:23:26;1.70;;;1.05;;
53652;SDS011;39553;52.954;5.932;2023-08-31T06:25:52;1.15;;;0.82;;
53652;SDS011;39553;52.954;5.932;2023-08-31T06:28:18;2.20;;;1.10;;
53652;SDS011;39553;52.954;5.932;2023-08-31T06:30:44;1.88;;;0.80;;
53652;SDS011;39553;52.954;5.932;2023-08-31T06:33:16;1.30;;;0.82;;
53652;SDS011;39553;52.954;5.932;2023-08-31T06:35:46;5.00;;;0.88;;
53652;SDS011;39553;52.954;5.932;2023-08-31T06:38:17;1.30;;;0.95;;
53652;SDS011;39553;52.954;5.932;2023-08-31T06:40:43;2.40;;;0.88;;
53652;SDS011;39553;52.954;5.932;2023-08-31T06:43:09;4.28;;;1.23;;
53652;SDS011;39553;52.954;5.932;2023-08-31T06:45:35;1.85;;;1.15;;
53652;SDS011;39553;52.954;5.932;2023-08-31T06:48:01;3.22;;;0.95;;
53652;SDS011;39553;52.954;5.932;2023-08-31T06:50:28;1.45;;;1.00;;
53652;SDS011;39553;52.954;5.932;2023-08-31T06:52:54;4.93;;;1.08;;
53652;SDS011;39553;52.954;5.932;2023-08-31T06:55:20;2.90;;;1.00;;
53652;SDS011;39553;52.954;5.932;2023-08-31T06:57:46;1.65;;;0.90;;
53652;SDS011;39553;52.954;5.932;2023-08-31T07:00:12;2.05;;;0.95;;
53652;SDS011;39553;52.954;5.932;2023-08-31T07:02:39;4.20;;;1.38;;
53652;SDS011;39553;52.954;5.932;2023-08-31T07:05:07;1.20;;;0.90;;
53652;SDS011;39553;52.954;5.932;2023-08-31T07:07:33;1.67;;;0.85;;
53652;SDS011;39553;52.954;5.932;2023-08-31T07:09:59;1.73;;;1.05;;
53652;SDS011;39553;52.954;5.932;2023-08-31T07:12:25;1.83;;;0.90;;
53652;SDS011;39553;52.954;5.932;2023-08-31T07:14:51;1.75;;;0.90;;
53652;SDS011;39553;52.954;5.932;2023-08-31T07:17:17;2.50;;;1.05;;
53652;SDS011;39553;52.954;5.932;2023-08-31T07:19:44;1.00;;;0.70;;
53652;SDS011;39553;52.954;5.932;2023-08-31T07:22:10;1.42;;;0.75;;
53652;SDS011;39553;52.954;5.932;2023-08-31T07:24:37;3.47;;;1.10;;
53652;SDS011;39553;52.954;5.932;2023-08-31T07:27:03;5.00;;;1.10;;
53652;SDS011;39553;52.954;5.932;2023-08-31T07:29:30;2.65;;;0.90;;
53652;SDS011;39553;52.954;5.932;2023-08-31T07:31:56;4.53;;;1.17;;
53652;SDS011;39553;52.954;5.932;2023-08-31T07:34:22;2.53;;;0.90;;
53652;SDS011;39553;52.954;5.932;2023-08-31T07:36:49;2.97;;;1.13;;
53652;SDS011;39553;52.954;5.932;2023-08-31T07:39:15;1.33;;;0.90;;
53652;SDS011;39553;52.954;5.932;2023-08-31T07:41:44;2.75;;;0.82;;
53652;SDS011;39553;52.954;5.932;2023-08-31T07:44:11;1.15;;;0.70;;
53652;SDS011;39553;52.954;5.932;2023-08-31T07:46:37;1.98;;;0.70;;
53652;SDS011;39553;52.954;5.932;2023-08-31T07:49:03;2.10;;;0.63;;
53652;SDS011;39553;52.954;5.932;2023-08-31T07:51:29;1.75;;;0.77;;
53652;SDS011;39553;52.954;5.932;2023-08-31T07:53:55;1.90;;;0.88;;
53652;SDS011;39553;52.954;5.932;2023-08-31T07:56:22;2.08;;;1.52;;
53652;SDS011;39553;52.954;5.932;2023-08-31T07:58:49;1.20;;;0.98;;
53652;SDS011;39553;52.954;5.932;2023-08-31T08:01:15;2.08;;;0.95;;
53652;SDS011;39553;52.954;5.932;2023-08-31T08:03:42;1.40;;;1.17;;
53652;SDS011;39553;52.954;5.932;2023-08-31T08:06:08;2.38;;;0.80;;
53652;SDS011;39553;52.954;5.932;2023-08-31T08:08:34;2.72;;;0.80;;
53652;SDS011;39553;52.954;5.932;2023-08-31T08:11:00;1.85;;;0.95;;
53652;SDS011;39553;52.954;5.932;2023-08-31T08:13:28;1.58;;;0.57;;
53652;SDS011;39553;52.954;5.932;2023-08-31T08:15:54;3.50;;;1.00;;
53652;SDS011;39553;52.954;5.932;2023-08-31T08:18:20;0.70;;;0.60;;
53652;SDS011;39553;52.954;5.932;2023-08-31T08:20:52;4.43;;;1.02;;
53652;SDS011;39553;52.954;5.932;2023-08-31T08:23:18;3.60;;;0.73;;
53652;SDS011;39553;52.954;5.932;2023-08-31T08:25:46;1.35;;;0.60;;
53652;SDS011;39553;52.954;5.932;2023-08-31T08:28:13;1.70;;;0.85;;
53652;SDS011;39553;52.954;5.932;2023-08-31T08:30:39;4.20;;;1.00;;
53652;SDS011;39553;52.954;5.932;2023-08-31T08:33:05;3.08;;;0.95;;
53652;SDS011;39553;52.954;5.932;2023-08-31T08:35:31;2.00;;;0.73;;
53652;SDS011;39553;52.954;5.932;2023-08-31T08:37:57;0.63;;;0.45;;
53652;SDS011;39553;52.954;5.932;2023-08-31T08:40:24;1.25;;;0.70;;
53652;SDS011;39553;52.954;5.932;2023-08-31T08:42:50;1.20;;;0.57;;
53652;SDS011;39553;52.954;5.932;2023-08-31T08:45:18;1.38;;;0.55;;
53652;SDS011;39553;52.954;5.932;2023-08-31T08:47:45;0.98;;;0.50;;
53652;SDS011;39553;52.954;5.932;2023-08-31T08:50:12;0.85;;;0.50;;
53652;SDS011;39553;52.954;5.932;2023-08-31T08:52:41;1.10;;;0.55;;
53652;SDS011;39553;52.954;5.932;2023-08-31T08:55:10;0.60;;;0.40;;
53652;SDS011;39553;52.954;5.932;2023-08-31T08:57:36;1.17;;;0.50;;
53652;SDS011;39553;52.954;5.932;2023-08-31T09:00:03;1.65;;;0.70;;
53652;SDS011;39553;52.954;5.932;2023-08-31T09:02:30;1.50;;;0.80;;
53652;SDS011;39553;52.954;5.932;2023-08-31T09:04:56;1.17;;;0.80;;
53652;SDS011;39553;52.954;5.932;2023-08-31T09:07:22;1.77;;;0.75;;
53652;SDS011;39553;52.954;5.932;2023-08-31T09:09:49;1.55;;;0.60;;
53652;SDS011;39553;52.954;5.932;2023-08-31T09:12:15;1.80;;;0.60;;
53652;SDS011;39553;52.954;5.932;2023-08-31T09:14:41;2.22;;;0.75;;
53652;SDS011;39553;52.954;5.932;2023-08-31T09:17:08;1.70;;;0.90;;
53652;SDS011;39553;52.954;5.932;2023-08-31T09:19:34;1.42;;;0.70;;
53652;SDS011;39553;52.954;5.932;2023-08-31T09:22:00;1.05;;;0.68;;
53652;SDS011;39553;52.954;5.932;2023-08-31T09:24:27;4.32;;;0.82;;
53652;SDS011;39553;52.954;5.932;2023-08-31T09:26:56;3.00;;;0.80;;
53652;SDS011;39553;52.954;5.932;2023-08-31T09:29:22;3.65;;;0.93;;
53652;SDS011;39553;52.954;5.932;2023-08-31T09:31:48;2.55;;;0.70;;
53652;SDS011;39553;52.954;5.932;2023-08-31T09:34:14;2.65;;;0.82;;
53652;SDS011;39553;52.954;5.932;2023-08-31T09:36:41;3.00;;;1.00;;
53652;SDS011;39553;52.954;5.932;2023-08-31T09:39:07;1.65;;;0.80;;
53652;SDS011;39553;52.954;5.932;2023-08-31T09:41:34;1.73;;;0.85;;
53652;SDS011;39553;52.954;5.932;2023-08-31T09:44:16;2.35;;;1.00;;
53652;SDS011;39553;52.954;5.932;2023-08-31T09:46:43;2.88;;;0.80;;
53652;SDS011;39553;52.954;5.932;2023-08-31T09:49:10;1.85;;;1.00;;
53652;SDS011;39553;52.954;5.932;2023-08-31T09:51:37;1.85;;;0.80;;
53652;SDS011;39553;52.954;5.932;2023-08-31T09:54:05;0.98;;;0.60;;
53652;SDS011;39553;52.954;5.932;2023-08-31T09:56:32;1.73;;;0.88;;
53652;SDS011;39553;52.954;5.932;2023-08-31T09:58:59;2.60;;;0.75;;
53652;SDS011;39553;52.954;5.932;2023-08-31T10:01:25;1.95;;;0.70;;
53652;SDS011;39553;52.954;5.932;2023-08-31T10:03:51;1.95;;;0.80;;
53652;SDS011;39553;52.954;5.932;2023-08-31T10:06:18;2.22;;;1.08;;
53652;SDS011;39553;52.954;5.932;2023-08-31T10:08:44;3.35;;;0.90;;
53652;SDS011;39553;52.954;5.932;2023-08-31T10:11:11;2.15;;;0.98;;
53652;SDS011;39553;52.954;5.932;2023-08-31T10:13:40;1.33;;;0.70;;
53652;SDS011;39553;52.954;5.932;2023-08-31T10:16:06;1.70;;;0.98;;
53652;SDS011;39553;52.954;5.932;2023-08-31T10:18:36;2.33;;;0.70;;
53652;SDS011;39553;52.954;5.932;2023-08-31T10:21:02;1.80;;;0.70;;
53652;SDS011;39553;52.954;5.932;2023-08-31T10:23:28;1.80;;;0.60;;
53652;SDS011;39553;52.954;5.932;2023-08-31T10:28:21;1.98;;;0.80;;
53652;SDS011;39553;52.954;5.932;2023-08-31T10:31:09;0.70;;;0.60;;
53652;SDS011;39553;52.954;5.932;2023-08-31T10:33:34;1.48;;;0.80;;
53652;SDS011;39553;52.954;5.932;2023-08-31T10:36:01;5.78;;;1.63;;
53652;SDS011;39553;52.954;5.932;2023-08-31T10:38:28;1.75;;;0.90;;
53652;SDS011;39553;52.954;5.932;2023-08-31T10:43:46;1.90;;;0.80;;
53652;SDS011;39553;52.954;5.932;2023-08-31T10:46:24;1.65;;;0.80;;
53652;SDS011;39553;52.954;5.932;2023-08-31T10:51:35;3.63;;;1.48;;
53652;SDS011;39553;52.954;5.932;2023-08-31T10:54:09;1.77;;;1.15;;
53652;SDS011;39553;52.954;5.932;2023-08-31T10:56:54;2.72;;;1.20;;
53652;SDS011;39553;52.954;5.932;2023-08-31T10:59:21;2.92;;;1.05;;
53652;SDS011;39553;52.954;5.932;2023-08-31T11:02:06;3.75;;;1.30;;
53652;SDS011;39553;52.954;5.932;2023-08-31T11:04:50;4.15;;;1.20;;
53652;SDS011;39553;52.954;5.932;2023-08-31T11:07:18;3.65;;;1.42;;
53652;SDS011;39553;52.954;5.932;2023-08-31T11:09:45;4.05;;;1.48;;
53652;SDS011;39553;52.954;5.932;2023-08-31T11:12:11;1.98;;;1.00;;
53652;SDS011;39553;52.954;5.932;2023-08-31T11:14:38;5.10;;;1.02;;
53652;SDS011;39553;52.954;5.932;2023-08-31T11:17:05;3.05;;;0.93;;
53652;SDS011;39553;52.954;5.932;2023-08-31T11:19:32;1.85;;;0.90;;
53652;SDS011;39553;52.954;5.932;2023-08-31T11:22:02;3.25;;;1.15;;
53652;SDS011;39553;52.954;5.932;2023-08-31T11:24:31;1.77;;;0.90;;
53652;SDS011;39553;52.954;5.932;2023-08-31T11:26:58;2.33;;;1.00;;
53652;SDS011;39553;52.954;5.932;2023-08-31T11:29:24;2.25;;;1.08;;
53652;SDS011;39553;52.954;5.932;2023-08-31T11:31:50;1.77;;;1.13;;
53652;SDS011;39553;52.954;5.932;2023-08-31T11:34:18;1.73;;;1.10;;
53652;SDS011;39553;52.954;5.932;2023-08-31T11:36:45;2.30;;;1.23;;
53652;SDS011;39553;52.954;5.932;2023-08-31T11:39:12;2.05;;;0.90;;
53652;SDS011;39553;52.954;5.932;2023-08-31T11:41:38;2.30;;;1.10;;
53652;SDS011;39553;52.954;5.932;2023-08-31T11:44:08;2.05;;;0.80;;
53652;SDS011;39553;52.954;5.932;2023-08-31T11:46:35;3.15;;;1.10;;
53652;SDS011;39553;52.954;5.932;2023-08-31T11:49:01;3.35;;;1.00;;
53652;SDS011;39553;52.954;5.932;2023-08-31T11:51:29;2.60;;;0.85;;
53652;SDS011;39553;52.954;5.932;2023-08-31T11:53:56;4.82;;;1.25;;
53652;SDS011;39553;52.954;5.932;2023-08-31T11:56:24;5.47;;;1.70;;
53652;SDS011;39553;52.954;5.932;2023-08-31T11:58:51;3.72;;;1.60;;
53652;SDS011;39553;52.954;5.932;2023-08-31T12:01:17;3.50;;;1.38;;
53652;SDS011;39553;52.954;5.932;2023-08-31T12:03:44;2.33;;;1.10;;
53652;SDS011;39553;52.954;5.932;2023-08-31T12:06:10;4.93;;;1.20;;
53652;SDS011;39553;52.954;5.932;2023-08-31T12:08:37;3.63;;;1.40;;
53652;SDS011;39553;52.954;5.932;2023-08-31T12:11:05;4.65;;;1.30;;
53652;SDS011;39553;52.954;5.932;2023-08-31T12:13:32;1.80;;;1.20;;
53652;SDS011;39553;52.954;5.932;2023-08-31T12:15:58;3.53;;;1.30;;
53652;SDS011;39553;52.954;5.932;2023-08-31T12:18:28;4.07;;;1.35;;
53652;SDS011;39553;52.954;5.932;2023-08-31T12:20:56;4.75;;;1.50;;
53652;SDS011;39553;52.954;5.932;2023-08-31T12:23:22;3.92;;;1.50;;
53652;SDS011;39553;52.954;5.932;2023-08-31T12:25:52;4.78;;;1.63;;
53652;SDS011;39553;52.954;5.932;2023-08-31T12:28:19;2.63;;;1.20;;
53652;SDS011;39553;52.954;5.932;2023-08-31T12:30:52;2.38;;;1.33;;
53652;SDS011;39553;52.954;5.932;2023-08-31T12:33:19;2.55;;;1.27;;
53652;SDS011;39553;52.954;5.932;2023-08-31T12:35:45;2.90;;;1.20;;
53652;SDS011;39553;52.954;5.932;2023-08-31T12:38:11;4.45;;;1.33;;
53652;SDS011;39553;52.954;5.932;2023-08-31T12:40:38;3.35;;;1.30;;
53652;SDS011;39553;52.954;5.932;2023-08-31T12:43:04;2.33;;;1.00;;
53652;SDS011;39553;52.954;5.932;2023-08-31T12:45:30;2.92;;;0.98;;
53652;SDS011;39553;52.954;5.932;2023-08-31T12:47:56;5.05;;;1.30;;
53652;SDS011;39553;52.954;5.932;2023-08-31T12:50:23;3.05;;;1.15;;
53652;SDS011;39553;52.954;5.932;2023-08-31T12:52:49;2.45;;;1.13;;
53652;SDS011;39553;52.954;5.932;2023-08-31T12:55:15;6.60;;;1.40;;
53652;SDS011;39553;52.954;5.932;2023-08-31T12:57:42;3.03;;;1.02;;
53652;SDS011;39553;52.954;5.932;2023-08-31T13:00:08;5.93;;;1.60;;
53652;SDS011;39553;52.954;5.932;2023-08-31T13:02:38;6.28;;;1.65;;
53652;SDS011;39553;52.954;5.932;2023-08-31T13:05:05;4.28;;;1.10;;
53652;SDS011;39553;52.954;5.932;2023-08-31T13:07:31;1.67;;;0.65;;
53652;SDS011;39553;52.954;5.932;2023-08-31T13:10:01;3.10;;;0.70;;
53652;SDS011;39553;52.954;5.932;2023-08-31T13:12:29;3.25;;;0.98;;
53652;SDS011;39553;52.954;5.932;2023-08-31T13:14:56;3.83;;;0.95;;
53652;SDS011;39553;52.954;5.932;2023-08-31T13:17:22;1.73;;;1.00;;
53652;SDS011;39553;52.954;5.932;2023-08-31T13:19:52;2.85;;;0.88;;
53652;SDS011;39553;52.954;5.932;2023-08-31T13:22:18;4.20;;;1.20;;
53652;SDS011;39553;52.954;5.932;2023-08-31T13:24:45;2.15;;;1.20;;
53652;SDS011;39553;52.954;5.932;2023-08-31T13:27:11;1.98;;;0.95;;
53652;SDS011;39553;52.954;5.932;2023-08-31T13:29:38;4.03;;;1.55;;
53652;SDS011;39553;52.954;5.932;2023-08-31T13:32:05;6.38;;;1.20;;
53652;SDS011;39553;52.954;5.932;2023-08-31T13:34:32;2.50;;;1.08;;
53652;SDS011;39553;52.954;5.932;2023-08-31T13:36:58;2.15;;;1.13;;
53652;SDS011;39553;52.954;5.932;2023-08-31T13:39:25;4.13;;;1.42;;
53652;SDS011;39553;52.954;5.932;2023-08-31T13:41:52;4.45;;;1.60;;
53652;SDS011;39553;52.954;5.932;2023-08-31T13:44:19;5.85;;;1.35;;
53652;SDS011;39553;52.954;5.932;2023-08-31T13:46:45;2.33;;;1.17;;
53652;SDS011;39553;52.954;5.932;2023-08-31T13:49:11;3.25;;;1.50;;
53652;SDS011;39553;52.954;5.932;2023-08-31T13:51:38;2.97;;;1.33;;
53652;SDS011;39553;52.954;5.932;2023-08-31T13:54:04;4.70;;;1.38;;
53652;SDS011;39553;52.954;5.932;2023-08-31T13:56:32;1.70;;;1.05;;
53652;SDS011;39553;52.954;5.932;2023-08-31T13:58:58;5.85;;;1.48;;
53652;SDS011;39553;52.954;5.932;2023-08-31T14:01:25;3.72;;;1.30;;
53652;SDS011;39553;52.954;5.932;2023-08-31T14:03:51;3.95;;;1.02;;
53652;SDS011;39553;52.954;5.932;2023-08-31T14:06:18;3.28;;;1.40;;
53652;SDS011;39553;52.954;5.932;2023-08-31T14:08:44;7.60;;;1.63;;
53652;SDS011;39553;52.954;5.932;2023-08-31T14:11:10;5.20;;;1.40;;
53652;SDS011;39553;52.954;5.932;2023-08-31T14:13:36;3.50;;;1.17;;
53652;SDS011;39553;52.954;5.932;2023-08-31T14:16:02;1.50;;;0.90;;
53652;SDS011;39553;52.954;5.932;2023-08-31T14:18:29;4.28;;;1.13;;
53652;SDS011;39553;52.954;5.932;2023-08-31T14:20:57;4.30;;;1.27;;
53652;SDS011;39553;52.954;5.932;2023-08-31T14:23:24;2.50;;;1.33;;
53652;SDS011;39553;52.954;5.932;2023-08-31T14:25:50;3.65;;;1.20;;
53652;SDS011;39553;52.954;5.932;2023-08-31T14:28:16;2.72;;;1.20;;
53652;SDS011;39553;52.954;5.932;2023-08-31T14:30:42;2.95;;;1.00;;
53652;SDS011;39553;52.954;5.932;2023-08-31T14:33:08;3.97;;;1.40;;
53652;SDS011;39553;52.954;5.932;2023-08-31T14:35:37;2.85;;;1.10;;
53652;SDS011;39553;52.954;5.932;2023-08-31T14:38:04;3.47;;;1.15;;
53652;SDS011;39553;52.954;5.932;2023-08-31T14:40:30;3.03;;;1.13;;
53652;SDS011;39553;52.954;5.932;2023-08-31T14:42:59;2.78;;;1.30;;
53652;SDS011;39553;52.954;5.932;2023-08-31T14:45:25;2.38;;;1.08;;
53652;SDS011;39553;52.954;5.932;2023-08-31T14:47:51;1.75;;;0.85;;
53652;SDS011;39553;52.954;5.932;2023-08-31T14:50:17;3.15;;;1.10;;
53652;SDS011;39553;52.954;5.932;2023-08-31T14:52:46;3.95;;;1.02;;
53652;SDS011;39553;52.954;5.932;2023-08-31T14:55:13;2.60;;;0.93;;
53652;SDS011;39553;52.954;5.932;2023-08-31T14:57:39;1.98;;;1.00;;
53652;SDS011;39553;52.954;5.932;2023-08-31T15:00:07;1.70;;;1.00;;
53652;SDS011;39553;52.954;5.932;2023-08-31T15:02:34;4.47;;;1.60;;
53652;SDS011;39553;52.954;5.932;2023-08-31T15:05:00;2.00;;;1.10;;